Time;durP1;ratioP1;P1;durP2;ratioP2;P2;SDS_P1;SDS_P2;PMS_P1;PMS_P2;Temp;Humidity;BMP_temperature;BMP_pressure;BME280_temperature;BME280_humidity;BME280_pressure;Samples;Min_cycle;Max_cycle;Signal;HPM_P1;HPM_P2
2023/08/30 00:01:08;;;;;;;16.35;12.10;;;;;;;25.45;90.13;100285.63;20919473;28;20076;-74
2023/08/30 00:11:32;;;;;;;15.45;13.85;;;;;;;25.42;91.24;100283.94;20903722;28;20048;-74
2023/08/30 00:21:57;;;;;;;17.08;13.57;;;;;;;25.36;94.71;100289.69;20944138;28;20052;-75
2023/08/30 00:32:19;;;;;;;17.23;13.88;;;;;;;25.26;95.93;100298.38;20924895;28;20044;-75
2023/08/30 00:42:44;;;;;;;17.50;14.18;;;;;;;25.24;98.78;100303.84;20920672;28;20051;-74
2023/08/30 00:53:08;;;;;;;19.15;15.25;;;;;;;25.19;100.00;100311.31;20924090;28;20498;-74
2023/08/30 01:03:33;;;;;;;18.30;15.30;;;;;;;25.03;100.00;100304.94;20916230;28;20053;-75
2023/08/30 01:13:59;;;;;;;17.85;15.15;;;;;;;25.07;100.00;100305.69;20924867;28;20049;-74
2023/08/30 01:24:30;;;;;;;20.88;15.75;;;;;;;24.98;100.00;100302.50;20921620;28;20045;-75
2023/08/30 01:34:55;;;;;;;19.33;15.35;;;;;;;25.01;100.00;100296.91;20910763;28;20076;-75
2023/08/30 01:45:19;;;;;;;17.83;15.35;;;;;;;24.95;100.00;100293.66;20889550;28;20485;-75
2023/08/30 01:55:44;;;;;;;19.15;15.98;;;;;;;24.90;100.00;100276.81;20891503;28;20103;-75
2023/08/30 02:06:10;;;;;;;18.23;16.35;;;;;;;24.86;100.00;100276.09;20890935;28;20533;-75
2023/08/30 02:16:35;;;;;;;19.90;16.70;;;;;;;24.85;100.00;100282.44;20892497;28;20885;-75
2023/08/30 02:26:57;;;;;;;21.02;16.92;;;;;;;24.75;100.00;100269.47;20874314;28;20132;-75
2023/08/30 02:37:22;;;;;;;23.15;17.55;;;;;;;24.65;100.00;100269.06;20905031;28;20102;-74
2023/08/30 02:47:46;;;;;;;21.20;17.10;;;;;;;24.58;100.00;100271.19;20899399;28;20107;-75
2023/08/30 02:58:10;;;;;;;20.40;17.20;;;;;;;24.59;100.00;100275.66;20876947;28;20056;-75
2023/08/30 03:08:34;;;;;;;20.55;17.10;;;;;;;24.57;100.00;100277.53;20888890;28;20045;-75
2023/08/30 03:18:59;;;;;;;20.13;17.45;;;;;;;24.40;100.00;100274.81;20901300;28;20053;-75
2023/08/30 03:29:21;;;;;;;21.75;17.60;;;;;;;24.47;100.00;100289.75;20947607;28;20578;-75
2023/08/30 03:39:46;;;;;;;23.02;20.08;;;;;;;24.42;100.00;100288.22;20920126;28;20087;-75
2023/08/30 03:50:10;;;;;;;20.73;16.95;;;;;;;24.38;100.00;100310.91;20898678;28;20057;-75
2023/08/30 04:00:37;;;;;;;22.58;17.17;;;;;;;24.29;100.00;100312.22;20885936;28;20501;-75
2023/08/30 04:11:00;;;;;;;21.40;17.47;;;;;;;24.43;100.00;100335.84;20896097;28;20048;-75
2023/08/30 04:21:25;;;;;;;22.13;17.30;;;;;;;24.63;100.00;100358.22;20910679;28;20103;-75
2023/08/30 04:31:47;;;;;;;18.75;15.57;;;;;;;24.81;100.00;100356.44;20908865;28;20102;-75
2023/08/30 04:42:11;;;;;;;20.15;14.35;;;;;;;25.07;100.00;100382.22;20920351;28;20056;-75
2023/08/30 04:52:35;;;;;;;19.33;14.10;;;;;;;25.46;100.00;100394.63;20907538;28;20048;-75
2023/08/30 05:02:59;;;;;;;16.95;14.35;;;;;;;25.88;100.00;100397.81;20892018;28;20409;-75
2023/08/30 05:13:23;;;;;;;19.75;14.68;;;;;;;26.04;100.00;100406.00;20885988;28;20048;-75
2023/08/30 05:23:47;;;;;;;19.55;14.60;;;;;;;26.05;100.00;100415.84;20899091;28;20091;-75
2023/08/30 05:34:10;;;;;;;17.17;13.52;;;;;;;26.05;100.00;100429.38;20874635;28;20398;-75
2023/08/30 05:44:52;;;;;;;17.00;11.60;;;;;;;26.90;100.00;100446.38;20921122;28;20044;-75
2023/08/30 05:55:15;;;;;;;18.13;11.50;;;;;;;28.46;100.00;100447.78;20887811;28;20596;-75
2023/08/30 06:05:40;;;;;;;19.63;7.55;;;;;;;29.90;100.00;100445.44;20883974;28;20110;-75
2023/08/30 06:16:03;;;;;;;16.27;7.20;;;;;;;29.80;100.00;100444.31;20924015;28;20048;-73
2023/08/30 06:26:27;;;;;;;16.10;6.97;;;;;;;30.47;100.00;100450.47;20923099;28;20051;-73
2023/08/30 06:36:49;;;;;;;12.18;6.47;;;;;;;31.13;100.00;100460.19;20907769;28;20048;-74
2023/08/30 06:47:13;;;;;;;14.27;5.93;;;;;;;32.10;99.30;100476.44;20874248;28;20056;-74
2023/08/30 06:57:36;;;;;;;13.98;6.20;;;;;;;32.50;89.83;100479.63;20913651;28;20037;-73
2023/08/30 07:08:00;;;;;;;17.85;5.55;;;;;;;33.25;86.41;100486.22;20943685;28;20040;-73
2023/08/30 07:18:22;;;;;;;15.03;5.80;;;;;;;32.47;85.84;100493.53;20966609;28;20114;-73
2023/08/30 07:28:47;;;;;;;12.88;4.88;;;;;;;32.90;84.50;100501.91;20955845;28;20048;-73
2023/08/30 07:39:10;;;;;;;9.27;2.80;;;;;;;33.75;77.93;100503.00;20934273;28;20048;-73
2023/08/30 07:49:35;;;;;;;11.55;2.90;;;;;;;33.87;70.44;100502.00;20935528;28;20127;-74
2023/08/30 07:59:57;;;;;;;;;;;;;;;34.19;65.62;100504.69;20993527;28;20130;-73
2023/08/30 08:10:22;;;;;;;13.13;2.80;;;;;;;34.93;61.07;100521.88;20963008;28;19924;-73
2023/08/30 08:20:44;;;;;;;10.85;2.75;;;;;;;35.54;55.95;100522.69;20980227;28;20055;-73
2023/08/30 08:31:09;;;;;;;13.90;3.42;;;;;;;35.73;52.12;100521.88;20919918;28;20570;-73
2023/08/30 08:41:36;;;;;;;11.18;3.15;;;;;;;35.12;52.21;100513.72;20979836;28;20052;-74
2023/08/30 08:52:03;;;;;;;11.40;3.53;;;;;;;34.99;50.77;100508.47;20977645;28;20044;-73
2023/08/30 09:02:26;;;;;;;11.30;3.50;;;;;;;35.52;49.78;100505.47;20926334;28;20044;-73
2023/08/30 09:12:50;;;;;;;10.82;3.08;;;;;;;36.01;46.96;100495.41;20898316;28;20142;-72
2023/08/30 09:23:20;;;;;;;10.30;2.60;;;;;;;36.61;44.46;100505.16;20895876;28;20711;-73
2023/08/30 09:33:47;;;;;;;12.65;3.03;;;;;;;36.66;43.02;100505.59;20912615;28;20151;-73
2023/08/30 09:44:11;;;;;;;10.38;2.63;;;;;;;36.82;42.17;100513.25;20921673;28;20134;-73
2023/08/30 09:54:38;;;;;;;9.40;2.70;;;;;;;36.87;41.47;100511.75;20909968;28;20055;-73
2023/08/30 10:05:01;;;;;;;9.43;1.98;;;;;;;37.05;40.24;100509.94;20906838;28;20531;-74
2023/08/30 10:15:28;;;;;;;8.90;2.50;;;;;;;37.12;38.75;100515.72;20980305;28;20040;-73
2023/08/30 10:25:53;;;;;;;8.85;2.40;;;;;;;36.96;37.88;100527.34;20903109;28;20100;-74
2023/08/30 10:36:23;;;;;;;7.60;1.83;;;;;;;36.95;37.07;100542.16;20910774;28;20419;-74
2023/08/30 10:46:53;;;;;;;5.38;1.70;;;;;;;36.58;37.55;100535.72;20892106;28;20045;-73
2023/08/30 10:57:21;;;;;;;7.47;1.77;;;;;;;36.27;38.13;100541.44;20915537;28;20063;-74
2023/08/30 11:07:44;;;;;;;10.18;1.95;;;;;;;35.83;39.69;100536.50;20909304;28;20052;-73
2023/08/30 11:18:12;;;;;;;10.77;2.20;;;;;;;35.88;40.43;100524.06;20935265;28;20049;-73
2023/08/30 11:28:34;;;;;;;8.70;2.30;;;;;;;35.90;40.92;100521.19;20891591;28;20081;-73
2023/08/30 11:38:59;;;;;;;10.98;2.13;;;;;;;35.87;41.27;100532.44;20900762;28;20113;-74
2023/08/30 11:49:21;;;;;;;10.03;2.17;;;;;;;35.97;41.26;100535.22;20922778;28;20049;-74
2023/08/30 11:59:47;;;;;;;9.25;1.90;;;;;;;36.11;41.22;100543.84;20929813;28;20040;-74
2023/08/30 12:10:12;;;;;;;8.18;1.90;;;;;;;35.87;41.35;100544.31;20905089;28;20444;-73
2023/08/30 12:20:36;;;;;;;6.78;1.58;;;;;;;35.91;41.87;100540.25;20889193;28;20057;-74
2023/08/30 12:30:59;;;;;;;11.18;1.83;;;;;;;35.61;42.43;100529.34;20930672;28;20045;-74
2023/08/30 12:41:23;;;;;;;10.10;1.77;;;;;;;35.29;42.25;100550.69;20915580;28;20053;-73
2023/08/30 12:51:45;;;;;;;11.85;2.13;;;;;;;35.02;42.41;100534.78;20913663;28;20056;-73
2023/08/30 13:02:09;;;;;;;10.02;1.90;;;;;;;34.63;42.02;100537.31;20901215;28;20617;-73
2023/08/30 13:12:32;;;;;;;8.77;1.90;;;;;;;34.63;42.67;100528.22;20926564;28;20408;-74
2023/08/30 13:22:56;;;;;;;9.95;2.33;;;;;;;34.31;42.58;100525.56;20885294;28;20057;-73
2023/08/30 13:33:18;;;;;;;11.50;2.20;;;;;;;34.21;42.68;100538.28;20924537;28;20049;-73
2023/08/30 13:43:42;;;;;;;9.60;2.10;;;;;;;34.06;42.68;100517.72;20914605;28;20053;-73
2023/08/30 13:54:05;;;;;;;7.50;1.83;;;;;;;33.77;43.17;100540.25;20914246;28;20052;-74
2023/08/30 14:04:32;;;;;;;6.85;1.90;;;;;;;33.98;41.50;100529.34;20894657;28;20469;-74
2023/08/30 14:14:54;;;;;;;8.37;2.03;;;;;;;34.18;39.97;100523.00;20928022;28;20053;-73
2023/08/30 14:25:19;;;;;;;8.63;1.85;;;;;;;34.12;41.32;100539.09;20889769;28;20045;-73
2023/08/30 14:35:44;;;;;;;9.75;1.75;;;;;;;33.86;42.13;100546.84;20914225;28;20051;-73
2023/08/30 14:46:08;;;;;;;12.63;2.20;;;;;;;33.40;43.71;100563.47;20893583;28;20433;-73
2023/08/30 14:56:31;;;;;;;8.77;1.65;;;;;;;33.06;44.20;100559.88;20910505;28;20045;-73
2023/08/30 15:06:55;;;;;;;8.82;2.00;;;;;;;32.53;44.78;100567.75;20894237;28;20477;-74
2023/08/30 15:17:18;;;;;;;10.23;1.92;;;;;;;32.13;46.65;100553.56;20923406;28;20045;-73
2023/08/30 15:27:42;;;;;;;8.88;1.70;;;;;;;31.78;49.22;100552.66;20908794;28;20444;-73
2023/08/30 15:38:05;;;;;;;6.68;1.70;;;;;;;31.48;51.93;100567.59;20920910;28;20052;-73
2023/08/30 15:48:28;;;;;;;11.98;2.13;;;;;;;31.26;57.54;100578.34;20907120;28;20056;-73
2023/08/30 15:58:51;;;;;;;12.25;1.88;;;;;;;31.00;66.79;100585.66;20907456;28;20049;-73
2023/08/30 16:09:15;;;;;;;12.00;2.28;;;;;;;30.68;70.91;100598.00;20921242;28;20063;-73
2023/08/30 16:19:37;;;;;;;13.07;2.85;;;;;;;30.51;72.85;100598.34;20931646;28;20585;-73
2023/08/30 16:30:02;;;;;;;11.30;2.00;;;;;;;30.18;79.35;100606.94;20889576;28;20383;-73
2023/08/30 16:40:25;;;;;;;15.60;2.65;;;;;;;29.95;85.18;100622.97;20896908;28;20053;-73
2023/08/30 16:50:50;;;;;;;15.23;2.58;;;;;;;29.70;88.70;100631.00;20884235;28;20053;-72
2023/08/30 17:01:12;;;;;;;12.95;2.60;;;;;;;29.53;89.75;100643.00;20926229;28;20109;-73
2023/08/30 17:11:38;;;;;;;13.73;3.00;;;;;;;29.29;94.59;100653.56;20920641;28;20131;-73
2023/08/30 17:22:02;;;;;;;11.07;2.38;;;;;;;29.19;95.06;100667.88;20926975;28;20049;-73
2023/08/30 17:32:27;;;;;;;12.30;2.72;;;;;;;29.04;98.00;100674.25;20927440;28;20051;-74
2023/08/30 17:42:50;;;;;;;13.45;2.90;;;;;;;28.96;97.76;100695.59;20942792;28;20060;-74
2023/08/30 17:53:21;;;;;;;11.32;2.97;;;;;;;28.87;99.01;100721.53;20889617;28;20060;-73
2023/08/30 18:03:44;;;;;;;11.00;2.75;;;;;;;28.74;100.00;100735.00;20916697;28;20045;-73
2023/08/30 18:14:08;;;;;;;12.18;2.53;;;;;;;28.63;100.00;100761.88;20891064;28;20045;-73
2023/08/30 18:24:30;;;;;;;10.65;2.08;;;;;;;28.51;100.00;100760.75;20907240;28;20067;-74
2023/08/30 18:34:54;;;;;;;13.95;3.03;;;;;;;28.43;100.00;100765.75;20911537;28;20053;-73
2023/08/30 18:45:17;;;;;;;9.23;2.28;;;;;;;28.34;100.00;100777.19;20904197;28;20048;-74
2023/08/30 18:55:41;;;;;;;12.20;2.78;;;;;;;28.22;100.00;100785.16;20924710;28;20065;-72
2023/08/30 19:06:04;;;;;;;9.95;2.30;;;;;;;28.15;100.00;100792.78;20903632;28;20049;-73
2023/08/30 19:16:29;;;;;;;10.88;2.10;;;;;;;27.97;100.00;100778.34;20936801;28;20771;-73
2023/08/30 19:26:53;;;;;;;15.13;2.10;;;;;;;27.75;100.00;100791.38;20905237;28;20103;-72
2023/08/30 19:37:18;;;;;;;8.13;2.22;;;;;;;27.59;100.00;100799.47;20902095;28;20044;-72
2023/08/30 19:47:41;;;;;;;10.18;2.45;;;;;;;27.52;100.00;100808.91;20917245;28;20080;-73
2023/08/30 19:58:05;;;;;;;8.55;2.20;;;;;;;27.29;100.00;100799.25;20911765;28;20045;-73
2023/08/30 20:08:28;;;;;;;8.98;1.80;;;;;;;27.14;100.00;100799.19;20902049;28;20509;-73
2023/08/30 20:18:52;;;;;;;11.98;1.98;;;;;;;26.92;100.00;100803.00;20901559;28;20047;-73
2023/08/30 20:29:15;;;;;;;10.32;1.90;;;;;;;26.87;100.00;100796.03;20902197;28;20049;-72
2023/08/30 20:39:38;;;;;;;7.57;1.60;;;;;;;26.77;100.00;100808.31;20892173;28;20122;-73
2023/08/30 20:50:01;;;;;;;11.65;2.05;;;;;;;26.55;100.00;100812.09;21013473;28;20117;-73
2023/08/30 21:00:25;;;;;;;7.25;1.42;;;;;;;26.55;100.00;100803.09;20933587;28;20103;-73
2023/08/30 21:10:48;;;;;;;8.07;1.70;;;;;;;26.36;100.00;100813.06;20918598;28;20045;-74
2023/08/30 21:21:12;;;;;;;8.55;1.73;;;;;;;26.27;100.00;100806.25;20939283;28;20064;-74
2023/08/30 21:31:35;;;;;;;6.88;1.48;;;;;;;26.02;100.00;100806.53;20894789;28;20053;-73
2023/08/30 21:41:59;;;;;;;5.97;1.67;;;;;;;25.90;100.00;100790.00;20915878;28;20059;-75
2023/08/30 21:52:21;;;;;;;8.13;2.00;;;;;;;25.80;100.00;100776.91;20908410;28;20132;-73
2023/08/30 22:02:46;;;;;;;11.02;1.73;;;;;;;25.79;100.00;100788.69;20932142;28;20078;-74
2023/08/30 22:13:09;;;;;;;11.88;2.25;;;;;;;25.48;100.00;100774.78;20913502;28;20056;-74
2023/08/30 22:23:33;;;;;;;8.98;1.80;;;;;;;25.56;100.00;100775.31;20906796;28;20056;-73
2023/08/30 22:33:55;;;;;;;8.93;1.77;;;;;;;25.55;100.00;100759.16;20912490;28;20512;-73
2023/08/30 22:44:19;;;;;;;13.52;2.17;;;;;;;25.47;100.00;100750.53;20974792;28;20567;-73
2023/08/30 22:54:42;;;;;;;10.45;2.25;;;;;;;25.28;100.00;100762.16;20949511;28;20132;-74
2023/08/30 23:05:07;;;;;;;10.63;3.38;;;;;;;25.24;100.00;100760.56;20897694;28;20045;-74
2023/08/30 23:15:30;;;;;;;6.32;1.75;;;;;;;25.09;100.00;100765.75;20881032;28;20073;-74
2023/08/30 23:25:57;;;;;;;6.18;1.90;;;;;;;24.95;100.00;100759.13;20890253;28;20061;-74
2023/08/30 23:36:24;;;;;;;8.00;2.00;;;;;;;24.72;100.00;100758.34;20905826;28;20107;-73
2023/08/30 23:46:48;;;;;;;7.35;1.70;;;;;;;24.61;100.00;100759.69;20890715;28;20049;-74
2023/08/30 23:57:10;;;;;;;13.27;2.03;;;;;;;24.66;100.00;100769.44;20935907;28;20048;-74
